Harrow, Canada
Current Conditions -  °F | °C
As of 7:14 PM on Sunday 23 Nov 2014 (Local Time) from KONZ Reporting Station
Moderate Rain Moderate Rain  
Wind Chill: 54°   Ceiling: 9000
Heat Index: 54°   Visibility: 10mi
Dew Point: 45°   Wind: 14mph
Humidity: 72%   Direction: 120°ESE
Pressure: 29.55"   Gusts: 21mph
Location:  42.03°N, 82.92°W
Report Text: KONZ 240014Z AUTO 12012G18KT 10SM RA SCT070 OVC090 12/07 A2955 RMK AO2
Loading
Personal Weather Stations






























Interactive Weather Map New forecast layout! Learn more

10-Day Weather Forecast

Advertisements
Track Severe Weather on mobile